sensor_id;sensor_type;location;lat;lon;timestamp;pressure;altitude;pressure_sealevel;temperature;humidity
33075;BME280;19433;51.292;6.868;2023-02-28T00:02:15;101764.41;;;-2.91;100.00
33075;BME280;19433;51.292;6.868;2023-02-28T00:04:42;101767.78;;;-2.88;100.00
33075;BME280;19433;51.292;6.868;2023-02-28T00:07:08;101776.59;;;-2.84;100.00
33075;BME280;19433;51.292;6.868;2023-02-28T00:09:33;101754.97;;;-2.84;100.00
33075;BME280;19433;51.292;6.868;2023-02-28T00:11:59;101762.13;;;-2.67;100.00
33075;BME280;19433;51.292;6.868;2023-02-28T00:14:24;101769.53;;;-2.55;100.00
33075;BME280;19433;51.292;6.868;2023-02-28T00:16:49;101764.72;;;-2.50;100.00
33075;BME280;19433;51.292;6.868;2023-02-28T00:19:15;101758.84;;;-2.42;100.00
33075;BME280;19433;51.292;6.868;2023-02-28T00:21:40;101762.94;;;-2.20;100.00
33075;BME280;19433;51.292;6.868;2023-02-28T00:24:06;101763.63;;;-2.16;100.00
33075;BME280;19433;51.292;6.868;2023-02-28T00:26:32;101758.13;;;-2.15;100.00
33075;BME280;19433;51.292;6.868;2023-02-28T00:28:57;101764.94;;;-1.93;100.00
33075;BME280;19433;51.292;6.868;2023-02-28T00:31:23;101758.09;;;-1.85;100.00
33075;BME280;19433;51.292;6.868;2023-02-28T00:33:48;101771.84;;;-1.73;100.00
33075;BME280;19433;51.292;6.868;2023-02-28T00:36:13;101764.09;;;-1.80;100.00
33075;BME280;19433;51.292;6.868;2023-02-28T00:38:40;101754.88;;;-1.91;100.00
33075;BME280;19433;51.292;6.868;2023-02-28T00:41:06;101770.03;;;-2.03;100.00
33075;BME280;19433;51.292;6.868;2023-02-28T00:43:34;101752.78;;;-2.16;100.00
33075;BME280;19433;51.292;6.868;2023-02-28T00:46:00;101744.31;;;-2.26;100.00
33075;BME280;19433;51.292;6.868;2023-02-28T00:48:26;101766.38;;;-2.32;100.00
33075;BME280;19433;51.292;6.868;2023-02-28T00:50:51;101759.22;;;-2.49;100.00
33075;BME280;19433;51.292;6.868;2023-02-28T00:53:16;101759.75;;;-2.58;100.00
33075;BME280;19433;51.292;6.868;2023-02-28T00:55:41;101762.91;;;-2.65;100.00
33075;BME280;19433;51.292;6.868;2023-02-28T00:58:07;101754.63;;;-2.78;100.00
33075;BME280;19433;51.292;6.868;2023-02-28T01:00:32;101750.00;;;-2.76;100.00
33075;BME280;19433;51.292;6.868;2023-02-28T01:02:57;101771.66;;;-2.76;100.00
33075;BME280;19433;51.292;6.868;2023-02-28T01:05:23;101765.00;;;-2.70;100.00
33075;BME280;19433;51.292;6.868;2023-02-28T01:07:48;101774.44;;;-2.77;100.00
33075;BME280;19433;51.292;6.868;2023-02-28T01:10:14;101770.66;;;-2.75;100.00
33075;BME280;19433;51.292;6.868;2023-02-28T01:12:39;101755.75;;;-2.82;100.00
33075;BME280;19433;51.292;6.868;2023-02-28T01:15:05;101753.59;;;-2.91;100.00
33075;BME280;19433;51.292;6.868;2023-02-28T01:17:30;101758.28;;;-2.95;100.00
33075;BME280;19433;51.292;6.868;2023-02-28T01:19:56;101745.28;;;-3.04;100.00
33075;BME280;19433;51.292;6.868;2023-02-28T01:22:21;101759.25;;;-2.96;100.00
33075;BME280;19433;51.292;6.868;2023-02-28T01:24:47;101764.56;;;-2.94;100.00
33075;BME280;19433;51.292;6.868;2023-02-28T01:27:13;101771.97;;;-2.98;100.00
33075;BME280;19433;51.292;6.868;2023-02-28T01:29:38;101775.09;;;-3.05;100.00
33075;BME280;19433;51.292;6.868;2023-02-28T01:32:04;101757.03;;;-3.21;100.00
33075;BME280;19433;51.292;6.868;2023-02-28T01:34:29;101769.59;;;-3.20;100.00
33075;BME280;19433;51.292;6.868;2023-02-28T01:36:54;101772.47;;;-3.23;100.00
33075;BME280;19433;51.292;6.868;2023-02-28T01:39:20;101770.28;;;-3.32;100.00
33075;BME280;19433;51.292;6.868;2023-02-28T01:41:45;101769.94;;;-3.26;100.00
33075;BME280;19433;51.292;6.868;2023-02-28T01:47:13;101770.44;;;-3.35;100.00
33075;BME280;19433;51.292;6.868;2023-02-28T01:49:39;101765.47;;;-3.42;100.00
33075;BME280;19433;51.292;6.868;2023-02-28T01:52:05;101763.72;;;-3.43;100.00
33075;BME280;19433;51.292;6.868;2023-02-28T01:54:33;101753.06;;;-3.46;100.00
33075;BME280;19433;51.292;6.868;2023-02-28T01:57:09;101745.59;;;-3.41;100.00
33075;BME280;19433;51.292;6.868;2023-02-28T01:59:41;101761.16;;;-3.46;100.00
33075;BME280;19433;51.292;6.868;2023-02-28T02:02:17;101745.13;;;-3.49;100.00
33075;BME280;19433;51.292;6.868;2023-02-28T02:05:03;101749.94;;;-3.55;100.00
33075;BME280;19433;51.292;6.868;2023-02-28T02:07:32;101742.50;;;-3.51;100.00
33075;BME280;19433;51.292;6.868;2023-02-28T02:15:56;101740.19;;;-3.41;100.00
33075;BME280;19433;51.292;6.868;2023-02-28T02:18:33;101741.56;;;-3.50;100.00
33075;BME280;19433;51.292;6.868;2023-02-28T02:24:42;101741.75;;;-3.53;100.00
33075;BME280;19433;51.292;6.868;2023-02-28T02:40:26;101718.81;;;-3.79;100.00
33075;BME280;19433;51.292;6.868;2023-02-28T02:43:01;101727.47;;;-3.72;100.00
33075;BME280;19433;51.292;6.868;2023-02-28T02:46:06;101727.63;;;-3.75;100.00
33075;BME280;19433;51.292;6.868;2023-02-28T02:48:36;101725.25;;;-3.81;100.00
33075;BME280;19433;51.292;6.868;2023-02-28T02:51:07;101719.41;;;-3.90;100.00
33075;BME280;19433;51.292;6.868;2023-02-28T02:53:42;101723.78;;;-3.87;100.00
33075;BME280;19433;51.292;6.868;2023-02-28T02:56:10;101722.09;;;-3.90;100.00
33075;BME280;19433;51.292;6.868;2023-02-28T02:58:40;101715.69;;;-3.87;100.00
33075;BME280;19433;51.292;6.868;2023-02-28T03:01:07;101724.00;;;-3.92;100.00
33075;BME280;19433;51.292;6.868;2023-02-28T03:03:35;101730.28;;;-3.91;100.00
33075;BME280;19433;51.292;6.868;2023-02-28T03:06:01;101720.69;;;-3.97;100.00
33075;BME280;19433;51.292;6.868;2023-02-28T03:08:29;101731.25;;;-4.09;100.00
33075;BME280;19433;51.292;6.868;2023-02-28T03:11:04;101729.50;;;-4.10;100.00
33075;BME280;19433;51.292;6.868;2023-02-28T03:18:36;101724.50;;;-4.35;100.00
33075;BME280;19433;51.292;6.868;2023-02-28T03:26:26;101726.41;;;-4.37;100.00
33075;BME280;19433;51.292;6.868;2023-02-28T03:34:08;101724.06;;;-4.43;100.00
33075;BME280;19433;51.292;6.868;2023-02-28T03:36:38;101718.03;;;-4.31;100.00
33075;BME280;19433;51.292;6.868;2023-02-28T03:39:14;101711.34;;;-4.24;100.00
33075;BME280;19433;51.292;6.868;2023-02-28T03:42:14;101722.19;;;-4.26;100.00
33075;BME280;19433;51.292;6.868;2023-02-28T03:44:59;101722.63;;;-4.16;100.00
33075;BME280;19433;51.292;6.868;2023-02-28T03:50:13;101713.34;;;-4.45;100.00
33075;BME280;19433;51.292;6.868;2023-02-28T03:52:45;101730.28;;;-4.26;100.00
33075;BME280;19433;51.292;6.868;2023-02-28T03:55:14;101727.13;;;-4.34;100.00
33075;BME280;19433;51.292;6.868;2023-02-28T03:57:57;101729.59;;;-4.29;100.00
33075;BME280;19433;51.292;6.868;2023-02-28T04:00:28;101720.56;;;-4.28;100.00
33075;BME280;19433;51.292;6.868;2023-02-28T04:02:56;101729.19;;;-4.39;100.00
33075;BME280;19433;51.292;6.868;2023-02-28T04:05:22;101733.78;;;-4.41;100.00
33075;BME280;19433;51.292;6.868;2023-02-28T04:07:48;101734.19;;;-4.48;100.00
33075;BME280;19433;51.292;6.868;2023-02-28T04:10:15;101722.91;;;-4.56;100.00
33075;BME280;19433;51.292;6.868;2023-02-28T04:12:42;101735.06;;;-4.48;100.00
33075;BME280;19433;51.292;6.868;2023-02-28T04:15:10;101733.47;;;-4.52;100.00
33075;BME280;19433;51.292;6.868;2023-02-28T04:17:36;101736.00;;;-4.49;100.00
33075;BME280;19433;51.292;6.868;2023-02-28T04:20:03;101735.44;;;-4.55;100.00
33075;BME280;19433;51.292;6.868;2023-02-28T04:22:35;101736.31;;;-4.55;100.00
33075;BME280;19433;51.292;6.868;2023-02-28T04:25:00;101745.34;;;-4.56;100.00
33075;BME280;19433;51.292;6.868;2023-02-28T04:27:26;101745.94;;;-4.49;100.00
33075;BME280;19433;51.292;6.868;2023-02-28T04:29:52;101739.66;;;-4.50;100.00
33075;BME280;19433;51.292;6.868;2023-02-28T04:32:17;101741.41;;;-4.49;100.00
33075;BME280;19433;51.292;6.868;2023-02-28T04:34:42;101743.22;;;-4.49;100.00
33075;BME280;19433;51.292;6.868;2023-02-28T04:37:07;101746.94;;;-4.52;100.00
33075;BME280;19433;51.292;6.868;2023-02-28T04:39:35;101744.25;;;-4.52;100.00
33075;BME280;19433;51.292;6.868;2023-02-28T04:42:01;101741.63;;;-4.53;100.00
33075;BME280;19433;51.292;6.868;2023-02-28T04:44:27;101726.88;;;-4.64;100.00
33075;BME280;19433;51.292;6.868;2023-02-28T04:46:53;101742.50;;;-4.53;100.00
33075;BME280;19433;51.292;6.868;2023-02-28T04:49:18;101743.53;;;-4.55;100.00
33075;BME280;19433;51.292;6.868;2023-02-28T04:51:44;101742.56;;;-4.54;100.00
33075;BME280;19433;51.292;6.868;2023-02-28T04:54:09;101728.28;;;-4.74;100.00
33075;BME280;19433;51.292;6.868;2023-02-28T04:56:35;101738.34;;;-4.77;100.00
33075;BME280;19433;51.292;6.868;2023-02-28T04:59:00;101743.34;;;-4.70;100.00
33075;BME280;19433;51.292;6.868;2023-02-28T05:01:31;101750.41;;;-4.67;100.00
33075;BME280;19433;51.292;6.868;2023-02-28T05:03:58;101748.41;;;-4.81;100.00
33075;BME280;19433;51.292;6.868;2023-02-28T05:06:26;101754.44;;;-4.76;100.00
33075;BME280;19433;51.292;6.868;2023-02-28T05:08:51;101745.78;;;-4.82;100.00
33075;BME280;19433;51.292;6.868;2023-02-28T05:13:47;101742.22;;;-5.02;100.00
33075;BME280;19433;51.292;6.868;2023-02-28T05:16:13;101755.75;;;-5.03;100.00
33075;BME280;19433;51.292;6.868;2023-02-28T05:18:39;101751.91;;;-4.98;100.00
33075;BME280;19433;51.292;6.868;2023-02-28T05:21:04;101755.63;;;-5.00;100.00
33075;BME280;19433;51.292;6.868;2023-02-28T05:23:30;101738.31;;;-5.13;100.00
33075;BME280;19433;51.292;6.868;2023-02-28T05:25:55;101747.41;;;-5.16;100.00
33075;BME280;19433;51.292;6.868;2023-02-28T05:28:20;101753.91;;;-5.20;100.00
33075;BME280;19433;51.292;6.868;2023-02-28T05:30:46;101759.69;;;-5.29;100.00
33075;BME280;19433;51.292;6.868;2023-02-28T05:33:12;101740.72;;;-5.26;100.00
33075;BME280;19433;51.292;6.868;2023-02-28T05:35:41;101744.50;;;-5.11;100.00
33075;BME280;19433;51.292;6.868;2023-02-28T05:38:08;101763.56;;;-5.16;100.00
33075;BME280;19433;51.292;6.868;2023-02-28T05:40:34;101761.38;;;-5.26;100.00
33075;BME280;19433;51.292;6.868;2023-02-28T05:43:00;101757.31;;;-5.35;100.00
33075;BME280;19433;51.292;6.868;2023-02-28T05:45:25;101769.59;;;-5.29;100.00
33075;BME280;19433;51.292;6.868;2023-02-28T05:47:54;101760.66;;;-5.30;100.00
33075;BME280;19433;51.292;6.868;2023-02-28T05:50:20;101775.59;;;-5.23;100.00
33075;BME280;19433;51.292;6.868;2023-02-28T05:52:49;101775.72;;;-5.26;100.00
33075;BME280;19433;51.292;6.868;2023-02-28T05:55:15;101773.53;;;-5.37;100.00
33075;BME280;19433;51.292;6.868;2023-02-28T05:57:40;101767.78;;;-5.29;100.00
33075;BME280;19433;51.292;6.868;2023-02-28T06:00:06;101774.84;;;-5.26;100.00
33075;BME280;19433;51.292;6.868;2023-02-28T06:02:31;101781.94;;;-5.05;100.00
33075;BME280;19433;51.292;6.868;2023-02-28T06:04:57;101782.34;;;-5.14;100.00
33075;BME280;19433;51.292;6.868;2023-02-28T06:07:22;101781.34;;;-5.12;100.00
33075;BME280;19433;51.292;6.868;2023-02-28T06:09:47;101782.88;;;-5.06;100.00
33075;BME280;19433;51.292;6.868;2023-02-28T06:12:13;101771.22;;;-5.07;100.00
33075;BME280;19433;51.292;6.868;2023-02-28T06:14:38;101795.81;;;-4.96;100.00
33075;BME280;19433;51.292;6.868;2023-02-28T06:17:04;101803.31;;;-4.83;100.00
33075;BME280;19433;51.292;6.868;2023-02-28T06:19:29;101808.44;;;-4.77;100.00
33075;BME280;19433;51.292;6.868;2023-02-28T06:21:56;101812.06;;;-4.78;100.00
33075;BME280;19433;51.292;6.868;2023-02-28T06:24:23;101789.50;;;-4.94;100.00
33075;BME280;19433;51.292;6.868;2023-02-28T06:26:49;101810.97;;;-4.93;100.00
33075;BME280;19433;51.292;6.868;2023-02-28T06:29:15;101793.88;;;-4.92;100.00
33075;BME280;19433;51.292;6.868;2023-02-28T06:31:45;101810.66;;;-4.87;100.00
33075;BME280;19433;51.292;6.868;2023-02-28T06:34:11;101793.72;;;-4.89;100.00
33075;BME280;19433;51.292;6.868;2023-02-28T06:36:40;101810.25;;;-4.78;100.00
33075;BME280;19433;51.292;6.868;2023-02-28T06:39:07;101811.31;;;-4.63;100.00
33075;BME280;19433;51.292;6.868;2023-02-28T06:41:33;101806.16;;;-4.68;100.00
33075;BME280;19433;51.292;6.868;2023-02-28T06:44:03;101815.84;;;-4.64;100.00
33075;BME280;19433;51.292;6.868;2023-02-28T06:46:29;101794.00;;;-4.76;100.00
33075;BME280;19433;51.292;6.868;2023-02-28T06:48:54;101818.97;;;-4.73;100.00
33075;BME280;19433;51.292;6.868;2023-02-28T06:51:20;101825.75;;;-4.64;100.00
33075;BME280;19433;51.292;6.868;2023-02-28T06:53:47;101817.53;;;-4.61;100.00
33075;BME280;19433;51.292;6.868;2023-02-28T06:56:15;101823.47;;;-4.54;100.00
33075;BME280;19433;51.292;6.868;2023-02-28T06:58:41;101821.97;;;-4.43;100.00
33075;BME280;19433;51.292;6.868;2023-02-28T07:01:07;101827.56;;;-4.46;100.00
33075;BME280;19433;51.292;6.868;2023-02-28T07:03:34;101827.38;;;-4.43;100.00
33075;BME280;19433;51.292;6.868;2023-02-28T07:06:00;101812.94;;;-4.42;100.00
33075;BME280;19433;51.292;6.868;2023-02-28T07:08:27;101824.97;;;-4.30;100.00
33075;BME280;19433;51.292;6.868;2023-02-28T07:10:56;101836.91;;;-4.17;100.00
33075;BME280;19433;51.292;6.868;2023-02-28T07:13:21;101842.84;;;-3.93;100.00
33075;BME280;19433;51.292;6.868;2023-02-28T07:15:59;101839.00;;;-3.70;100.00
33075;BME280;19433;51.292;6.868;2023-02-28T07:18:25;101833.44;;;-3.67;100.00
33075;BME280;19433;51.292;6.868;2023-02-28T07:20:51;101838.84;;;-3.67;100.00
33075;BME280;19433;51.292;6.868;2023-02-28T07:23:17;101845.00;;;-3.65;100.00
33075;BME280;19433;51.292;6.868;2023-02-28T07:25:44;101837.63;;;-3.62;100.00
33075;BME280;19433;51.292;6.868;2023-02-28T07:28:10;101837.91;;;-3.50;100.00
33075;BME280;19433;51.292;6.868;2023-02-28T07:30:35;101848.09;;;-2.90;100.00
33075;BME280;19433;51.292;6.868;2023-02-28T07:33:01;101850.75;;;-1.80;100.00
33075;BME280;19433;51.292;6.868;2023-02-28T07:35:26;101839.13;;;-1.08;92.96
33075;BME280;19433;51.292;6.868;2023-02-28T07:37:51;101838.00;;;-0.21;91.75
33075;BME280;19433;51.292;6.868;2023-02-28T07:40:17;101857.72;;;0.22;86.29
33075;BME280;19433;51.292;6.868;2023-02-28T07:42:43;101851.03;;;0.40;82.51
33075;BME280;19433;51.292;6.868;2023-02-28T07:45:10;101854.66;;;0.79;80.48
33075;BME280;19433;51.292;6.868;2023-02-28T07:47:40;101854.78;;;1.02;78.22
33075;BME280;19433;51.292;6.868;2023-02-28T07:50:07;101860.56;;;0.85;74.52
33075;BME280;19433;51.292;6.868;2023-02-28T07:52:33;101855.00;;;1.37;73.88
33075;BME280;19433;51.292;6.868;2023-02-28T07:54:58;101859.06;;;1.92;74.94
33075;BME280;19433;51.292;6.868;2023-02-28T07:57:23;101858.25;;;1.79;67.46
33075;BME280;19433;51.292;6.868;2023-02-28T07:59:48;101852.34;;;2.68;65.84
33075;BME280;19433;51.292;6.868;2023-02-28T08:02:15;101864.06;;;3.70;62.32
33075;BME280;19433;51.292;6.868;2023-02-28T08:04:40;101855.66;;;5.72;54.75
33075;BME280;19433;51.292;6.868;2023-02-28T08:07:06;101870.34;;;7.63;48.28
33075;BME280;19433;51.292;6.868;2023-02-28T08:09:31;101876.44;;;8.75;43.78
33075;BME280;19433;51.292;6.868;2023-02-28T08:11:56;101883.25;;;9.24;38.86
33075;BME280;19433;51.292;6.868;2023-02-28T08:14:22;101885.59;;;10.63;36.96
33075;BME280;19433;51.292;6.868;2023-02-28T08:16:47;101878.81;;;10.41;36.88
33075;BME280;19433;51.292;6.868;2023-02-28T08:19:12;101882.72;;;12.32;34.41
33075;BME280;19433;51.292;6.868;2023-02-28T08:21:39;101875.75;;;13.50;29.21
33075;BME280;19433;51.292;6.868;2023-02-28T08:24:05;101885.25;;;12.95;29.32
33075;BME280;19433;51.292;6.868;2023-02-28T08:26:30;101899.16;;;13.33;28.79
33075;BME280;19433;51.292;6.868;2023-02-28T08:28:56;101895.31;;;13.86;28.40
33075;BME280;19433;51.292;6.868;2023-02-28T08:31:21;101899.22;;;13.62;29.05
33075;BME280;19433;51.292;6.868;2023-02-28T08:33:48;101900.56;;;14.97;27.10
33075;BME280;19433;51.292;6.868;2023-02-28T08:36:18;101900.94;;;15.86;24.86
33075;BME280;19433;51.292;6.868;2023-02-28T08:38:44;101911.75;;;14.83;27.96
33075;BME280;19433;51.292;6.868;2023-02-28T08:41:11;101904.06;;;16.11;24.33
33075;BME280;19433;51.292;6.868;2023-02-28T08:43:37;101901.13;;;16.67;24.81
33075;BME280;19433;51.292;6.868;2023-02-28T08:46:03;101901.78;;;15.87;23.25
33075;BME280;19433;51.292;6.868;2023-02-28T08:48:30;101910.31;;;12.79;25.36
33075;BME280;19433;51.292;6.868;2023-02-28T08:51:00;101904.88;;;12.63;26.23
33075;BME280;19433;51.292;6.868;2023-02-28T08:53:26;101906.41;;;13.71;26.15
33075;BME280;19433;51.292;6.868;2023-02-28T08:55:59;101906.09;;;15.61;24.57
33075;BME280;19433;51.292;6.868;2023-02-28T08:58:25;101905.63;;;16.68;23.47
33075;BME280;19433;51.292;6.868;2023-02-28T09:00:51;101899.56;;;14.62;23.58
33075;BME280;19433;51.292;6.868;2023-02-28T09:03:16;101898.50;;;14.85;24.50
33075;BME280;19433;51.292;6.868;2023-02-28T09:05:58;101896.63;;;16.25;23.32
33075;BME280;19433;51.292;6.868;2023-02-28T09:08:25;101898.47;;;17.26;21.89
33075;BME280;19433;51.292;6.868;2023-02-28T09:10:51;101900.31;;;18.18;21.00
33075;BME280;19433;51.292;6.868;2023-02-28T09:13:18;101904.03;;;17.92;21.63
33075;BME280;19433;51.292;6.868;2023-02-28T09:15:44;101905.13;;;16.10;22.33
33075;BME280;19433;51.292;6.868;2023-02-28T09:18:10;101901.88;;;17.08;22.14
33075;BME280;19433;51.292;6.868;2023-02-28T09:20:39;101898.59;;;16.31;21.99
33075;BME280;19433;51.292;6.868;2023-02-28T09:23:06;101899.38;;;18.88;20.47
33075;BME280;19433;51.292;6.868;2023-02-28T09:25:33;101885.75;;;17.96;22.18
33075;BME280;19433;51.292;6.868;2023-02-28T09:27:58;101881.53;;;16.60;22.83
33075;BME280;19433;51.292;6.868;2023-02-28T09:30:23;101896.94;;;17.10;21.68
33075;BME280;19433;51.292;6.868;2023-02-28T09:32:49;101874.25;;;15.70;24.35
33075;BME280;19433;51.292;6.868;2023-02-28T09:35:21;101889.22;;;16.45;20.82
33075;BME280;19433;51.292;6.868;2023-02-28T09:37:51;101869.69;;;14.05;23.29
33075;BME280;19433;51.292;6.868;2023-02-28T09:40:17;101876.16;;;12.56;24.68
33075;BME280;19433;51.292;6.868;2023-02-28T09:42:47;101865.94;;;10.90;27.26
33075;BME280;19433;51.292;6.868;2023-02-28T09:48:00;101862.47;;;11.05;28.08
33075;BME280;19433;51.292;6.868;2023-02-28T09:50:36;101868.50;;;10.09;29.02
33075;BME280;19433;51.292;6.868;2023-02-28T09:53:10;101866.53;;;6.71;33.08
33075;BME280;19433;51.292;6.868;2023-02-28T09:55:48;101849.91;;;6.53;35.28
33075;BME280;19433;51.292;6.868;2023-02-28T09:58:27;101858.03;;;9.79;30.18
33075;BME280;19433;51.292;6.868;2023-02-28T10:01:12;101876.75;;;9.33;32.01
33075;BME280;19433;51.292;6.868;2023-02-28T10:04:03;101851.88;;;6.90;35.70
33075;BME280;19433;51.292;6.868;2023-02-28T10:06:39;101867.78;;;6.96;37.68
33075;BME280;19433;51.292;6.868;2023-02-28T10:09:23;101860.38;;;6.00;37.24
33075;BME280;19433;51.292;6.868;2023-02-28T10:11:52;101860.94;;;4.82;38.44
33075;BME280;19433;51.292;6.868;2023-02-28T10:14:20;101858.13;;;4.93;39.68
33075;BME280;19433;51.292;6.868;2023-02-28T10:16:53;101860.53;;;4.66;41.21
33075;BME280;19433;51.292;6.868;2023-02-28T10:19:44;101854.72;;;4.59;42.78
33075;BME280;19433;51.292;6.868;2023-02-28T10:22:17;101848.91;;;5.15;39.97
33075;BME280;19433;51.292;6.868;2023-02-28T10:24:47;101865.75;;;6.98;35.28
33075;BME280;19433;51.292;6.868;2023-02-28T10:27:23;101843.91;;;5.90;36.24
33075;BME280;19433;51.292;6.868;2023-02-28T10:29:52;101859.44;;;7.99;35.00
33075;BME280;19433;51.292;6.868;2023-02-28T10:32:22;101861.13;;;8.37;33.28
33075;BME280;19433;51.292;6.868;2023-02-28T10:34:59;101848.22;;;7.83;35.62
33075;BME280;19433;51.292;6.868;2023-02-28T10:37:26;101851.94;;;6.70;34.35
33075;BME280;19433;51.292;6.868;2023-02-28T10:39:52;101846.31;;;7.19;34.80
33075;BME280;19433;51.292;6.868;2023-02-28T10:42:23;101862.03;;;6.60;36.48
33075;BME280;19433;51.292;6.868;2023-02-28T10:47:33;101850.91;;;10.77;32.96
33075;BME280;19433;51.292;6.868;2023-02-28T10:49:59;101867.41;;;12.90;27.64
33075;BME280;19433;51.292;6.868;2023-02-28T10:52:39;101850.34;;;14.84;24.98
33075;BME280;19433;51.292;6.868;2023-02-28T10:55:25;101854.22;;;15.60;24.43
33075;BME280;19433;51.292;6.868;2023-02-28T10:57:51;101849.19;;;13.33;26.64
33075;BME280;19433;51.292;6.868;2023-02-28T11:00:24;101846.41;;;11.08;28.96
33075;BME280;19433;51.292;6.868;2023-02-28T11:02:51;101850.38;;;9.65;32.22
33075;BME280;19433;51.292;6.868;2023-02-28T11:07:54;101831.53;;;6.83;34.89
33075;BME280;19433;51.292;6.868;2023-02-28T11:10:25;101832.56;;;5.74;37.22
33075;BME280;19433;51.292;6.868;2023-02-28T11:12:55;101838.28;;;5.92;37.59
33075;BME280;19433;51.292;6.868;2023-02-28T11:17:54;101838.78;;;6.26;36.73
33075;BME280;19433;51.292;6.868;2023-02-28T11:20:23;101820.81;;;5.93;37.61
33075;BME280;19433;51.292;6.868;2023-02-28T11:22:50;101820.91;;;5.42;38.22
33075;BME280;19433;51.292;6.868;2023-02-28T11:25:29;101833.97;;;4.98;39.64
33075;BME280;19433;51.292;6.868;2023-02-28T11:27:58;101839.31;;;5.30;39.49
33075;BME280;19433;51.292;6.868;2023-02-28T11:30:32;101841.63;;;6.15;38.66
33075;BME280;19433;51.292;6.868;2023-02-28T11:32:59;101819.81;;;6.04;36.54
33075;BME280;19433;51.292;6.868;2023-02-28T11:35:31;101831.28;;;7.60;34.71
33075;BME280;19433;51.292;6.868;2023-02-28T11:37:59;101828.25;;;10.98;31.48
33075;BME280;19433;51.292;6.868;2023-02-28T11:40:48;101833.81;;;12.39;27.06
33075;BME280;19433;51.292;6.868;2023-02-28T11:46:20;101841.81;;;11.48;26.86
33075;BME280;19433;51.292;6.868;2023-02-28T11:49:02;101834.31;;;9.26;30.17
33075;BME280;19433;51.292;6.868;2023-02-28T11:51:56;101829.06;;;8.71;33.74
33075;BME280;19433;51.292;6.868;2023-02-28T11:57:35;101844.31;;;12.75;26.76
33075;BME280;19433;51.292;6.868;2023-02-28T12:00:25;101830.25;;;13.51;27.90
33075;BME280;19433;51.292;6.868;2023-02-28T12:05:49;101848.00;;;15.93;23.27
33075;BME280;19433;51.292;6.868;2023-02-28T12:08:34;101827.50;;;14.46;24.51
33075;BME280;19433;51.292;6.868;2023-02-28T12:13:50;101835.97;;;15.02;23.30
33075;BME280;19433;51.292;6.868;2023-02-28T12:21:53;101815.47;;;15.37;24.65
33075;BME280;19433;51.292;6.868;2023-02-28T12:27:21;101805.97;;;14.76;23.19
33075;BME280;19433;51.292;6.868;2023-02-28T12:32:55;101809.84;;;15.59;23.01
33075;BME280;19433;51.292;6.868;2023-02-28T12:35:26;101813.00;;;15.83;22.48
33075;BME280;19433;51.292;6.868;2023-02-28T12:38:06;101801.69;;;15.92;23.68
33075;BME280;19433;51.292;6.868;2023-02-28T12:40:49;101801.72;;;15.57;22.51
33075;BME280;19433;51.292;6.868;2023-02-28T12:43:17;101776.75;;;13.57;24.95
33075;BME280;19433;51.292;6.868;2023-02-28T12:45:48;101777.81;;;13.04;25.39
33075;BME280;19433;51.292;6.868;2023-02-28T12:48:20;101776.06;;;16.23;22.72
33075;BME280;19433;51.292;6.868;2023-02-28T12:50:47;101771.53;;;15.33;23.06
33075;BME280;19433;51.292;6.868;2023-02-28T12:53:16;101774.25;;;17.35;21.44
33075;BME280;19433;51.292;6.868;2023-02-28T12:55:53;101760.13;;;15.28;25.55
33075;BME280;19433;51.292;6.868;2023-02-28T13:06:43;101747.94;;;13.58;25.41
33075;BME280;19433;51.292;6.868;2023-02-28T13:09:12;101744.69;;;14.69;26.61
33075;BME280;19433;51.292;6.868;2023-02-28T13:11:46;101740.72;;;15.06;26.45
33075;BME280;19433;51.292;6.868;2023-02-28T13:14:38;101735.19;;;15.47;23.92
33075;BME280;19433;51.292;6.868;2023-02-28T13:19:35;101737.19;;;13.70;26.54
33075;BME280;19433;51.292;6.868;2023-02-28T13:22:03;101737.78;;;14.23;25.86
33075;BME280;19433;51.292;6.868;2023-02-28T13:24:50;101729.41;;;13.80;28.39
33075;BME280;19433;51.292;6.868;2023-02-28T13:27:31;101734.56;;;16.87;24.13
33075;BME280;19433;51.292;6.868;2023-02-28T13:29:57;101731.03;;;15.65;23.98
33075;BME280;19433;51.292;6.868;2023-02-28T13:39:51;101716.63;;;12.68;25.69
33075;BME280;19433;51.292;6.868;2023-02-28T14:01:34;101709.69;;;9.81;30.07
33075;BME280;19433;51.292;6.868;2023-02-28T14:06:55;101680.06;;;10.56;30.33
33075;BME280;19433;51.292;6.868;2023-02-28T14:09:25;101692.78;;;10.98;30.56
33075;BME280;19433;51.292;6.868;2023-02-28T14:11:53;101689.41;;;10.47;30.10
33075;BME280;19433;51.292;6.868;2023-02-28T14:17:07;101679.75;;;10.18;34.34
33075;BME280;19433;51.292;6.868;2023-02-28T14:19:36;101680.06;;;10.64;31.20
33075;BME280;19433;51.292;6.868;2023-02-28T14:27:45;101672.84;;;9.32;33.16
33075;BME280;19433;51.292;6.868;2023-02-28T14:36:25;101659.16;;;8.80;33.84
33075;BME280;19433;51.292;6.868;2023-02-28T14:43:51;101679.53;;;8.35;35.35
33075;BME280;19433;51.292;6.868;2023-02-28T14:46:17;101665.53;;;8.11;36.69
33075;BME280;19433;51.292;6.868;2023-02-28T14:48:46;101668.53;;;8.61;34.85
33075;BME280;19433;51.292;6.868;2023-02-28T14:51:12;101671.13;;;7.66;36.66
33075;BME280;19433;51.292;6.868;2023-02-28T14:53:43;101673.69;;;7.32;36.82
33075;BME280;19433;51.292;6.868;2023-02-28T14:56:26;101669.19;;;7.76;39.94
33075;BME280;19433;51.292;6.868;2023-02-28T14:58:54;101668.25;;;6.95;41.67
33075;BME280;19433;51.292;6.868;2023-02-28T15:01:21;101680.16;;;7.13;39.25
33075;BME280;19433;51.292;6.868;2023-02-28T15:03:47;101675.22;;;7.17;38.67
33075;BME280;19433;51.292;6.868;2023-02-28T15:06:17;101669.66;;;7.71;38.30
33075;BME280;19433;51.292;6.868;2023-02-28T15:08:43;101654.44;;;6.30;40.33
33075;BME280;19433;51.292;6.868;2023-02-28T15:11:19;101653.47;;;6.22;40.76
33075;BME280;19433;51.292;6.868;2023-02-28T15:13:52;101638.06;;;5.92;41.81
33075;BME280;19433;51.292;6.868;2023-02-28T15:16:22;101647.28;;;6.10;43.16
33075;BME280;19433;51.292;6.868;2023-02-28T15:18:54;101645.22;;;6.12;43.76